createdAt,value
2022-10-11T00:01:17.408Z,94.06
2022-10-11T00:03:43.909Z,94.10
2022-10-11T00:06:10.469Z,94.30
2022-10-11T00:08:37.093Z,93.87
2022-10-11T00:11:06.713Z,94.09
2022-10-11T00:13:33.486Z,94.23
2022-10-11T00:16:00.141Z,94.36
2022-10-11T00:18:26.632Z,94.38
2022-10-11T00:21:12.591Z,94.47
2022-10-11T00:23:40.021Z,93.67
2022-10-11T00:26:09.935Z,94.47
2022-10-11T00:28:37.177Z,94.05
2022-10-11T00:31:08.017Z,94.33
2022-10-11T00:33:34.977Z,94.71
2022-10-11T00:36:01.929Z,94.35
2022-10-11T00:38:31.874Z,93.97
2022-10-11T00:40:59.191Z,94.33
2022-10-11T00:43:27.712Z,94.33
2022-10-11T00:46:24.882Z,94.63
2022-10-11T00:49:01.077Z,93.88
2022-10-11T00:51:37.607Z,94.67
2022-10-11T00:54:06.071Z,94.08
2022-10-11T00:56:38.940Z,93.98
2022-10-11T00:59:12.330Z,94.54
2022-10-11T01:01:38.949Z,93.84
2022-10-11T01:04:06.009Z,94.04
2022-10-11T01:06:34.040Z,94.60
2022-10-11T01:09:00.473Z,94.35
2022-10-11T01:11:29.762Z,94.35
2022-10-11T01:14:40.890Z,94.52
2022-10-11T01:17:13.885Z,94.28
2022-10-11T01:20:04.424Z,94.11
2022-10-11T01:22:33.840Z,94.34
2022-10-11T01:25:16.031Z,94.34
2022-10-11T01:28:04.274Z,94.25
2022-10-11T01:30:34.142Z,94.33
2022-10-11T01:33:13.100Z,93.99
2022-10-11T01:36:06.478Z,94.00
2022-10-11T01:38:45.837Z,93.84
2022-10-11T01:41:23.589Z,93.71
2022-10-11T01:43:54.423Z,94.13
2022-10-11T01:46:21.751Z,93.81
2022-10-11T01:48:53.322Z,93.65
2022-10-11T01:51:24.254Z,93.73
2022-10-11T01:54:02.608Z,93.79
2022-10-11T01:56:44.166Z,93.82
2022-10-11T01:59:48.401Z,94.28
2022-10-11T02:02:20.917Z,93.85
2022-10-11T02:04:54.435Z,93.97
2022-10-11T02:07:53.189Z,93.83
2022-10-11T02:10:41.782Z,93.68
2022-10-11T02:13:23.422Z,93.24
2022-10-11T02:15:52.312Z,93.74
2022-10-11T02:18:23.486Z,93.46
2022-10-11T02:20:51.891Z,93.99
2022-10-11T02:23:29.745Z,93.83
2022-10-11T02:25:57.714Z,93.81
2022-10-11T02:28:29.679Z,93.37
2022-10-11T02:30:58.130Z,93.28
2022-10-11T02:33:31.706Z,94.04
2022-10-11T02:36:05.926Z,93.83
2022-10-11T02:38:40.094Z,93.80
2022-10-11T02:41:23.230Z,93.98
2022-10-11T02:43:57.571Z,93.31
2022-10-11T02:46:26.425Z,93.88
2022-10-11T02:48:53.867Z,93.68
2022-10-11T02:51:20.338Z,93.67
2022-10-11T02:53:46.760Z,93.36
2022-10-11T02:56:13.198Z,93.73
2022-10-11T02:58:39.602Z,93.46
2022-10-11T03:01:06.453Z,93.61
2022-10-11T03:03:32.902Z,93.82
2022-10-11T03:06:03.957Z,93.80
2022-10-11T03:08:31.468Z,93.72
2022-10-11T03:10:58.112Z,93.36
2022-10-11T03:13:24.600Z,93.07
2022-10-11T03:16:07.365Z,93.47
2022-10-11T03:18:34.030Z,93.33
2022-10-11T03:21:00.457Z,93.18
2022-10-11T03:23:27.022Z,93.31
2022-10-11T03:25:53.537Z,93.19
2022-10-11T03:28:20.975Z,93.47
2022-10-11T03:30:48.499Z,93.81
2022-10-11T03:33:15.170Z,93.37
2022-10-11T03:35:44.774Z,93.46
2022-10-11T03:38:16.684Z,93.49
2022-10-11T03:40:44.034Z,94.26
2022-10-11T03:43:10.948Z,93.45
2022-10-11T03:45:37.760Z,93.26
2022-10-11T03:48:04.602Z,93.83
2022-10-11T03:50:31.264Z,93.52
2022-10-11T03:52:58.307Z,93.56
2022-10-11T03:55:24.760Z,93.58
2022-10-11T03:57:51.169Z,93.21
2022-10-11T04:00:17.802Z,93.25
2022-10-11T04:02:44.443Z,93.10
2022-10-11T04:05:12.579Z,93.36
2022-10-11T04:07:39.625Z,93.11
2022-10-11T04:10:07.197Z,93.55
2022-10-11T04:12:34.682Z,93.51
2022-10-11T04:15:01.146Z,93.41
2022-10-11T04:17:27.594Z,93.34
2022-10-11T04:19:54.043Z,93.30
2022-10-11T04:22:20.475Z,93.10
2022-10-11T04:24:46.918Z,93.23
2022-10-11T04:27:13.341Z,93.23
2022-10-11T04:29:39.743Z,93.38
2022-10-11T04:32:06.302Z,93.47
2022-10-11T04:34:32.725Z,93.69
2022-10-11T04:36:59.190Z,93.65
2022-10-11T04:39:25.614Z,93.66
2022-10-11T04:41:52.102Z,93.46
2022-10-11T04:44:18.494Z,93.59
2022-10-11T04:46:44.889Z,93.46
2022-10-11T04:49:11.351Z,93.47
2022-10-11T04:51:37.962Z,93.26
2022-10-11T04:54:04.468Z,93.45
2022-10-11T04:56:30.891Z,93.67
2022-10-11T04:58:57.388Z,93.37
2022-10-11T05:01:23.839Z,93.51
2022-10-11T05:03:50.300Z,93.09
2022-10-11T05:06:16.895Z,92.98
2022-10-11T05:08:43.380Z,92.64
2022-10-11T05:11:16.195Z,92.85
2022-10-11T05:13:43.353Z,93.05
2022-10-11T05:16:11.409Z,93.27
2022-10-11T05:18:38.974Z,93.13
2022-10-11T05:21:17.863Z,93.42
2022-10-11T05:23:45.197Z,93.21
2022-10-11T05:26:11.694Z,92.60
2022-10-11T05:28:38.185Z,92.48
2022-10-11T05:31:05.466Z,92.60
2022-10-11T05:33:32.308Z,92.91
2022-10-11T05:35:58.763Z,92.75
2022-10-11T05:38:25.165Z,92.95
2022-10-11T05:40:52.125Z,93.17
2022-10-11T05:43:18.803Z,92.95
2022-10-11T05:45:46.431Z,93.24
2022-10-11T05:48:13.088Z,92.84
2022-10-11T05:50:39.611Z,93.23
2022-10-11T05:53:06.493Z,92.94
2022-10-11T05:55:40.972Z,92.74
2022-10-11T05:58:09.787Z,92.95
2022-10-11T06:00:37.965Z,92.82
2022-10-11T06:03:08.524Z,93.17
2022-10-11T06:05:35.539Z,93.01
2022-10-11T06:08:02.639Z,93.29
2022-10-11T06:10:29.481Z,93.15
2022-10-11T06:12:55.913Z,93.05
2022-10-11T06:15:22.504Z,93.08
2022-10-11T06:17:48.958Z,93.05
2022-10-11T06:20:15.787Z,92.74
2022-10-11T06:22:42.660Z,92.78
2022-10-11T06:25:09.407Z,92.51
2022-10-11T06:27:35.932Z,92.51
2022-10-11T06:30:02.842Z,93.04
2022-10-11T06:32:29.276Z,92.82
2022-10-11T06:34:55.766Z,93.00
2022-10-11T06:37:22.208Z,92.29
2022-10-11T06:39:50.300Z,92.26
2022-10-11T06:42:17.229Z,92.44
2022-10-11T06:44:43.683Z,91.79
2022-10-11T06:47:10.200Z,92.00
2022-10-11T06:49:36.686Z,91.40
2022-10-11T06:52:03.164Z,91.61
2022-10-11T06:54:29.665Z,91.29
2022-10-11T06:56:56.080Z,90.70
2022-10-11T06:59:22.519Z,91.01
2022-10-11T07:01:48.940Z,91.07
2022-10-11T07:04:15.390Z,91.17
2022-10-11T07:06:42.026Z,91.48
2022-10-11T07:09:09.019Z,91.06
2022-10-11T07:11:36.029Z,91.13
2022-10-11T07:14:07.653Z,91.18
2022-10-11T07:16:37.652Z,91.50
2022-10-11T07:19:05.591Z,91.49
2022-10-11T07:21:33.610Z,91.23
2022-10-11T07:24:00.673Z,90.58
2022-10-11T07:26:28.095Z,90.31
2022-10-11T07:28:54.694Z,91.16
2022-10-11T07:31:24.194Z,90.95
2022-10-11T07:33:50.944Z,90.57
2022-10-11T07:36:17.536Z,90.59
2022-10-11T07:38:46.236Z,90.52
2022-10-11T07:41:13.907Z,90.96
2022-10-11T07:43:40.560Z,90.70
2022-10-11T07:46:07.775Z,90.76
2022-10-11T07:48:36.237Z,91.11
2022-10-11T07:51:11.918Z,91.07
2022-10-11T07:53:49.791Z,90.71
2022-10-11T07:56:19.806Z,91.22
2022-10-11T07:58:53.953Z,91.03
2022-10-11T08:01:20.848Z,91.08
2022-10-11T08:03:48.218Z,91.12
2022-10-11T08:06:22.909Z,91.08
2022-10-11T08:08:49.617Z,91.03
2022-10-11T08:11:36.670Z,91.27
2022-10-11T08:14:08.360Z,91.74
2022-10-11T08:16:36.128Z,91.95
2022-10-11T08:19:03.374Z,91.38
2022-10-11T08:21:30.722Z,91.64
2022-10-11T08:23:57.398Z,91.74
2022-10-11T08:26:24.494Z,92.19
2022-10-11T08:28:51.020Z,91.87
2022-10-11T08:31:17.528Z,91.47
2022-10-11T08:33:44.338Z,91.47
2022-10-11T08:36:11.573Z,91.61
2022-10-11T08:38:39.005Z,91.57
2022-10-11T08:41:25.548Z,91.85
2022-10-11T08:44:06.343Z,91.47
2022-10-11T08:46:35.195Z,91.38
2022-10-11T08:49:02.430Z,91.44
2022-10-11T08:51:52.523Z,91.06
2022-10-11T08:54:32.107Z,90.99
2022-10-11T08:57:00.476Z,90.48
2022-10-11T08:59:36.680Z,90.29
2022-10-11T09:03:07.084Z,90.05
2022-10-11T09:05:54.479Z,89.51
2022-10-11T09:08:31.328Z,88.46
2022-10-11T09:11:19.427Z,88.03
2022-10-11T09:13:51.421Z,87.20
2022-10-11T09:16:36.033Z,86.83
2022-10-11T09:19:30.265Z,86.31
2022-10-11T09:22:12.078Z,86.37
2022-10-11T09:25:05.719Z,85.24
2022-10-11T09:28:02.891Z,84.53
2022-10-11T09:30:30.223Z,83.39
2022-10-11T09:33:12.234Z,82.54
2022-10-11T09:35:46.322Z,81.63
2022-10-11T09:38:31.306Z,81.64
2022-10-11T09:41:05.974Z,81.30
2022-10-11T09:43:32.469Z,81.24
2022-10-11T09:45:58.988Z,80.62
2022-10-11T09:48:32.999Z,79.25
2022-10-11T09:51:04.907Z,78.79
2022-10-11T09:53:51.447Z,79.55
2022-10-11T09:56:18.100Z,78.24
2022-10-11T09:58:44.798Z,76.88
2022-10-11T10:01:23.160Z,76.41
2022-10-11T10:04:08.442Z,75.92
2022-10-11T10:06:35.323Z,74.58
2022-10-11T10:09:25.371Z,74.92
2022-10-11T10:11:53.211Z,74.17
2022-10-11T10:14:23.886Z,75.76
2022-10-11T10:17:00.647Z,73.85
2022-10-11T10:19:27.484Z,72.75
2022-10-11T10:21:56.323Z,73.75
2022-10-11T10:24:41.126Z,72.82
2022-10-11T10:27:10.560Z,71.37
2022-10-11T10:29:37.726Z,71.20
2022-10-11T10:32:14.994Z,71.10
2022-10-11T10:34:58.377Z,70.69
2022-10-11T10:37:41.653Z,70.95
2022-10-11T10:40:22.267Z,70.66
2022-10-11T10:42:50.218Z,70.64
2022-10-11T10:45:21.471Z,70.67
2022-10-11T10:47:54.290Z,70.35
2022-10-11T10:50:30.575Z,71.21
2022-10-11T10:53:23.961Z,70.75
2022-10-11T10:56:05.590Z,69.88
2022-10-11T10:58:56.491Z,68.20
2022-10-11T11:01:25.009Z,70.22
2022-10-11T11:04:18.756Z,68.32
2022-10-11T11:06:51.088Z,68.41
2022-10-11T11:09:30.900Z,67.76
2022-10-11T11:12:12.515Z,67.17
2022-10-11T11:14:51.026Z,66.08
2022-10-11T11:17:29.591Z,65.48
2022-10-11T11:20:33.588Z,65.94
2022-10-11T11:23:35.126Z,65.54
2022-10-11T11:26:42.003Z,64.52
2022-10-11T11:29:17.472Z,65.01
2022-10-11T11:32:15.869Z,65.25
2022-10-11T11:34:48.021Z,64.25
2022-10-11T11:37:37.258Z,64.50
2022-10-11T11:40:18.122Z,62.13
2022-10-11T11:42:50.666Z,62.12
2022-10-11T11:45:31.290Z,63.93
2022-10-11T11:48:10.356Z,63.04
2022-10-11T11:50:40.643Z,64.66
2022-10-11T11:53:32.470Z,64.64
2022-10-11T11:56:15.264Z,66.20
2022-10-11T11:58:52.870Z,64.98
2022-10-11T12:01:41.413Z,64.38
2022-10-11T12:04:30.020Z,64.59
2022-10-11T12:07:17.970Z,63.22
2022-10-11T12:09:50.745Z,60.54
2022-10-11T12:12:38.149Z,64.09
2022-10-11T12:15:23.331Z,63.77
2022-10-11T12:17:56.119Z,64.34
2022-10-11T12:20:28.808Z,63.40
2022-10-11T12:22:59.939Z,62.10
2022-10-11T12:25:26.334Z,61.95
2022-10-11T12:27:56.015Z,60.60
2022-10-11T12:31:04.045Z,62.08
2022-10-11T12:33:30.669Z,56.45
2022-10-11T12:36:04.137Z,59.76
2022-10-11T12:38:39.892Z,60.53
2022-10-11T12:41:09.311Z,60.59
2022-10-11T12:44:12.907Z,61.72
2022-10-11T12:46:51.208Z,62.01
2022-10-11T12:49:32.269Z,63.12
2022-10-11T12:52:17.641Z,64.09
2022-10-11T12:54:59.418Z,63.99
2022-10-11T12:57:50.870Z,62.16
2022-10-11T13:00:23.621Z,61.55
2022-10-11T13:02:50.433Z,59.85
2022-10-11T13:05:20.898Z,59.58
2022-10-11T13:07:48.370Z,57.47
2022-10-11T13:10:28.752Z,59.86
2022-10-11T13:12:59.515Z,58.60
2022-10-11T13:15:26.543Z,58.42
2022-10-11T13:17:59.170Z,59.78
2022-10-11T13:20:28.746Z,59.00
2022-10-11T13:22:56.731Z,58.33
2022-10-11T13:25:26.275Z,55.96
2022-10-11T13:27:56.178Z,58.53
2022-10-11T13:30:25.907Z,61.38
2022-10-11T13:32:53.283Z,60.88
2022-10-11T13:35:29.255Z,63.10
2022-10-11T13:37:56.095Z,61.61
2022-10-11T13:40:23.629Z,62.72
2022-10-11T13:42:52.138Z,59.24
2022-10-11T13:45:21.628Z,59.88
2022-10-11T13:47:49.705Z,59.81
2022-10-11T13:50:16.164Z,62.12
2022-10-11T13:53:06.874Z,63.25
2022-10-11T13:55:49.826Z,61.04
2022-10-11T13:58:30.218Z,62.64
2022-10-11T14:00:59.760Z,62.27
2022-10-11T14:03:47.463Z,61.56
2022-10-11T14:06:14.117Z,57.97
2022-10-11T14:08:51.780Z,58.53
2022-10-11T14:11:36.063Z,60.40
2022-10-11T14:14:34.252Z,58.05
2022-10-11T14:17:06.621Z,59.81
2022-10-11T14:19:33.032Z,58.92
2022-10-11T14:21:59.518Z,58.10
2022-10-11T14:24:25.957Z,55.55
2022-10-11T14:26:56.370Z,60.22
2022-10-11T14:29:34.598Z,56.45
2022-10-11T14:32:31.778Z,60.28
2022-10-11T14:34:58.379Z,58.24
2022-10-11T14:37:25.544Z,60.56
2022-10-11T14:39:52.380Z,59.75
2022-10-11T14:42:19.148Z,59.86
2022-10-11T14:44:45.677Z,59.86
2022-10-11T14:47:16.827Z,60.75
2022-10-11T14:49:43.447Z,58.88
2022-10-11T14:52:13.733Z,58.97
2022-10-11T14:54:41.176Z,58.89
2022-10-11T14:57:08.015Z,59.88
2022-10-11T14:59:37.026Z,60.27
2022-10-11T15:02:06.075Z,60.21
2022-10-11T15:04:33.316Z,61.48
2022-10-11T15:07:00.164Z,62.46
2022-10-11T15:09:26.710Z,63.31
2022-10-11T15:11:54.889Z,63.63
2022-10-11T15:14:25.255Z,64.75
2022-10-11T15:16:52.356Z,64.24
2022-10-11T15:19:22.085Z,65.08
2022-10-11T15:22:45.886Z,66.24
2022-10-11T15:25:12.362Z,67.10
2022-10-11T15:27:38.800Z,68.00
2022-10-11T15:30:31.523Z,68.47
2022-10-11T15:32:58.039Z,69.55
2022-10-11T15:35:26.148Z,70.51
2022-10-11T15:37:54.830Z,70.96
2022-10-11T15:40:25.207Z,70.50
2022-10-11T15:42:53.793Z,70.94
2022-10-11T15:45:21.351Z,71.60
2022-10-11T15:47:48.585Z,71.68
2022-10-11T15:50:37.472Z,72.04
2022-10-11T15:53:08.412Z,72.72
2022-10-11T15:55:38.148Z,73.32
2022-10-11T15:58:05.049Z,73.36
2022-10-11T16:00:31.586Z,74.46
2022-10-11T16:02:59.094Z,75.02
2022-10-11T16:05:27.788Z,74.54
2022-10-11T16:07:54.909Z,75.24
2022-10-11T16:10:21.818Z,74.67
2022-10-11T16:12:48.890Z,75.76
2022-10-11T16:15:15.520Z,75.82
2022-10-11T16:17:41.958Z,75.98
2022-10-11T16:20:09.221Z,76.47
2022-10-11T16:22:36.571Z,77.26
2022-10-11T16:25:04.457Z,78.06
2022-10-11T16:27:31.051Z,77.77
2022-10-11T16:29:57.833Z,78.12
2022-10-11T16:32:25.491Z,78.99
2022-10-11T16:34:51.922Z,79.37
2022-10-11T16:37:18.685Z,79.87
2022-10-11T16:39:45.833Z,80.45
2022-10-11T16:42:12.287Z,80.07
2022-10-11T16:44:39.376Z,80.34
2022-10-11T16:47:06.856Z,81.19
2022-10-11T16:49:33.997Z,81.37
2022-10-11T16:52:02.466Z,81.65
2022-10-11T16:54:30.208Z,81.51
2022-10-11T16:56:58.362Z,81.84
2022-10-11T16:59:24.904Z,82.05
2022-10-11T17:01:51.544Z,82.34
2022-10-11T17:04:18.274Z,82.52
2022-10-11T17:06:45.078Z,81.96
2022-10-11T17:09:11.647Z,82.71
2022-10-11T17:11:38.479Z,83.15
2022-10-11T17:14:05.915Z,83.25
2022-10-11T17:16:32.729Z,82.82
2022-10-11T17:18:59.199Z,83.32
2022-10-11T17:21:25.771Z,83.42
2022-10-11T17:23:52.443Z,83.28
2022-10-11T17:26:26.223Z,83.47
2022-10-11T17:28:54.977Z,83.65
2022-10-11T17:31:21.962Z,83.74
2022-10-11T17:33:48.858Z,83.75
2022-10-11T17:36:23.013Z,84.03
2022-10-11T17:38:50.594Z,84.39
2022-10-11T17:41:17.831Z,84.14
2022-10-11T17:43:44.516Z,84.35
2022-10-11T17:46:13.585Z,84.88
2022-10-11T17:48:40.526Z,84.83
2022-10-11T17:51:09.691Z,85.07
2022-10-11T17:53:36.999Z,84.82
2022-10-11T17:56:07.835Z,85.38
2022-10-11T17:58:34.954Z,85.38
2022-10-11T18:01:14.429Z,85.34
2022-10-11T18:03:42.575Z,85.14
2022-10-11T18:06:13.558Z,85.42
2022-10-11T18:08:40.968Z,86.02
2022-10-11T18:11:13.526Z,85.88
2022-10-11T18:13:42.857Z,86.27
2022-10-11T18:16:10.759Z,85.95
2022-10-11T18:18:37.912Z,86.20
2022-10-11T18:21:04.447Z,86.06
2022-10-11T18:23:30.985Z,86.40
2022-10-11T18:25:57.396Z,87.11
2022-10-11T18:28:24.051Z,87.11
2022-10-11T18:30:50.702Z,86.48
2022-10-11T18:33:17.569Z,87.11
2022-10-11T18:35:44.002Z,86.28
2022-10-11T18:38:10.507Z,86.79
2022-10-11T18:40:41.320Z,86.90
2022-10-11T18:43:11.265Z,86.88
2022-10-11T18:45:37.753Z,87.88
2022-10-11T18:48:04.401Z,87.51
2022-10-11T18:50:34.877Z,87.42
2022-10-11T18:53:02.247Z,86.94
2022-10-11T18:55:28.740Z,87.73
2022-10-11T18:57:55.189Z,87.64
2022-10-11T19:00:40.673Z,87.81
2022-10-11T19:03:07.854Z,87.46
2022-10-11T19:05:34.329Z,87.71
2022-10-11T19:08:00.836Z,87.94
2022-10-11T19:10:27.327Z,87.83
2022-10-11T19:12:53.829Z,87.31
2022-10-11T19:15:20.263Z,87.63
2022-10-11T19:17:46.711Z,87.36
2022-10-11T19:20:13.410Z,87.88
2022-10-11T19:22:39.836Z,87.97
2022-10-11T19:25:06.656Z,87.75
2022-10-11T19:27:33.113Z,88.23
2022-10-11T19:30:00.404Z,87.90
2022-10-11T19:32:26.998Z,87.62
2022-10-11T19:34:53.429Z,88.21
2022-10-11T19:37:19.882Z,88.06
2022-10-11T19:39:46.297Z,88.49
2022-10-11T19:42:12.762Z,88.67
2022-10-11T19:44:39.779Z,88.57
2022-10-11T19:47:06.620Z,88.24
2022-10-11T19:49:34.245Z,88.11
2022-10-11T19:52:01.229Z,88.21
2022-10-11T19:54:28.286Z,88.04
2022-10-11T19:56:54.781Z,88.38
2022-10-11T19:59:21.462Z,88.44
2022-10-11T20:01:52.448Z,88.48
2022-10-11T20:04:47.198Z,88.02
2022-10-11T20:07:06.216Z,88.12
2022-10-11T20:09:32.683Z,87.79
2022-10-11T20:11:59.262Z,88.15
2022-10-11T20:14:26.008Z,88.02
2022-10-11T20:16:52.593Z,88.10
2022-10-11T20:19:19.474Z,87.94
2022-10-11T20:21:46.417Z,87.95
2022-10-11T20:24:12.967Z,88.31
2022-10-11T20:26:40.025Z,88.67
2022-10-11T20:29:06.893Z,88.52
2022-10-11T20:31:38.136Z,88.30
2022-10-11T20:34:07.173Z,88.32
2022-10-11T20:36:39.228Z,88.71
2022-10-11T20:39:06.622Z,88.59
2022-10-11T20:41:39.847Z,88.77
2022-10-11T20:44:10.718Z,88.70
2022-10-11T20:46:38.779Z,88.27
2022-10-11T20:49:11.308Z,88.73
2022-10-11T20:51:41.441Z,88.41
2022-10-11T20:54:08.292Z,88.63
2022-10-11T20:56:35.606Z,88.42
2022-10-11T20:59:02.204Z,88.43
2022-10-11T21:01:34.551Z,88.41
2022-10-11T21:04:02.480Z,88.39
2022-10-11T21:06:30.643Z,88.71
2022-10-11T21:08:58.981Z,88.59
2022-10-11T21:11:27.282Z,88.82
2022-10-11T21:13:56.187Z,88.57
2022-10-11T21:16:22.951Z,88.73
2022-10-11T21:18:57.803Z,88.98
2022-10-11T21:21:25.412Z,88.88
2022-10-11T21:24:00.106Z,88.57
2022-10-11T21:26:27.581Z,88.67
2022-10-11T21:28:54.090Z,88.63
2022-10-11T21:31:21.630Z,88.55
2022-10-11T21:33:48.444Z,88.90
2022-10-11T21:36:20.687Z,88.91
2022-10-11T21:38:48.314Z,89.63
2022-10-11T21:41:17.511Z,89.30
2022-10-11T21:43:44.378Z,89.20
2022-10-11T21:46:13.877Z,89.66
2022-10-11T21:48:40.799Z,89.93
2022-10-11T21:51:07.667Z,89.50
2022-10-11T21:53:34.293Z,89.58
2022-10-11T21:56:01.543Z,89.05
2022-10-11T21:58:28.632Z,89.50
2022-10-11T22:00:55.145Z,89.21
2022-10-11T22:03:21.673Z,89.38
2022-10-11T22:05:48.397Z,89.33
2022-10-11T22:08:15.114Z,89.85
2022-10-11T22:10:52.082Z,89.48
2022-10-11T22:13:18.523Z,89.66
2022-10-11T22:15:45.000Z,89.73
2022-10-11T22:18:11.698Z,89.75
2022-10-11T22:20:38.155Z,89.71
2022-10-11T22:23:04.607Z,89.59
2022-10-11T22:25:30.998Z,89.94
2022-10-11T22:27:57.459Z,90.11
2022-10-11T22:30:23.899Z,89.76
2022-10-11T22:32:52.007Z,89.23
2022-10-11T22:35:19.763Z,89.38
2022-10-11T22:37:46.226Z,89.05
2022-10-11T22:40:12.680Z,88.88
2022-10-11T22:42:39.160Z,88.81
2022-10-11T22:45:05.978Z,89.12
2022-10-11T22:47:32.448Z,89.08
2022-10-11T22:49:58.918Z,88.87
2022-10-11T22:52:25.369Z,89.43
2022-10-11T22:54:51.993Z,89.09
2022-10-11T22:57:18.544Z,89.19
2022-10-11T22:59:45.060Z,89.54
2022-10-11T23:02:11.609Z,89.58
2022-10-11T23:04:38.030Z,89.43
2022-10-11T23:07:05.197Z,89.57
2022-10-11T23:09:31.765Z,89.75
2022-10-11T23:11:59.308Z,89.52
2022-10-11T23:14:25.775Z,89.47
2022-10-11T23:16:52.605Z,89.31
2022-10-11T23:19:19.258Z,89.40
2022-10-11T23:21:46.607Z,89.84
2022-10-11T23:24:13.253Z,89.14
2022-10-11T23:26:39.703Z,89.34
2022-10-11T23:29:06.227Z,89.63
2022-10-11T23:31:32.672Z,89.01
2022-10-11T23:33:59.125Z,89.57
2022-10-11T23:36:26.086Z,89.90
2022-10-11T23:38:58.278Z,89.85
2022-10-11T23:41:27.382Z,89.94
2022-10-11T23:43:53.921Z,89.61
2022-10-11T23:46:20.406Z,89.45
2022-10-11T23:48:47.029Z,89.49
2022-10-11T23:51:14.009Z,89.63
2022-10-11T23:53:41.550Z,89.71
2022-10-11T23:56:09.761Z,89.50
2022-10-11T23:58:36.504Z,89.73
